Terminal Aerodrome Forecast
Issued by NWS Wilmington, OH

Current Version | Previous Version | Text Only | Print | Product List | Glossary Off
Versions: 1 2 3 4 5 6 7 8 9 10 11 12 13 14 15 16 17 18 19 20 21 22 23 24 25 26

242
FTUS41 KILN 251140
TAFILN
TAF
KILN 251140Z 2512/2612 05004KT 4SM BR SKC
     FM251300 05006KT P6SM SKC
     FM251600 05006KT P6SM SCT040
     FM260000 08003KT P6SM FEW250
     FM260600 08003KT 4SM BR FEW250=

USA.gov is the U.S. government's official web portal to all federal, state and local government web resources and services.